createdAt,value
2023-04-07T00:00:39.000Z,85.60
2023-04-07T00:01:39.000Z,86.67
2023-04-07T00:02:40.000Z,86.09
2023-04-07T00:03:39.000Z,86.30
2023-04-07T00:04:39.000Z,85.96
2023-04-07T00:05:39.000Z,86.06
2023-04-07T00:06:39.000Z,85.91
2023-04-07T00:07:39.000Z,86.72
2023-04-07T00:08:39.000Z,87.20
2023-04-07T00:09:39.000Z,86.97
2023-04-07T00:10:39.000Z,87.00
2023-04-07T00:11:39.000Z,87.31
2023-04-07T00:12:39.000Z,87.97
2023-04-07T00:13:39.000Z,87.77
2023-04-07T00:14:39.000Z,87.93
2023-04-07T00:15:39.000Z,87.86
2023-04-07T00:16:39.000Z,87.88
2023-04-07T00:17:39.000Z,87.94
2023-04-07T00:18:39.000Z,87.93
2023-04-07T00:19:39.000Z,87.53
2023-04-07T00:20:39.000Z,87.32
2023-04-07T00:21:39.000Z,87.54
2023-04-07T00:22:39.000Z,88.09
2023-04-07T00:23:39.000Z,87.93
2023-04-07T00:24:39.000Z,87.55
2023-04-07T00:25:39.000Z,88.04
2023-04-07T00:26:39.000Z,87.09
2023-04-07T00:27:39.000Z,87.56
2023-04-07T00:28:39.000Z,87.94
2023-04-07T00:29:39.000Z,87.84
2023-04-07T00:30:39.000Z,88.02
2023-04-07T00:31:39.000Z,87.87
2023-04-07T00:32:39.000Z,87.76
2023-04-07T00:33:39.000Z,88.45
2023-04-07T00:34:39.000Z,88.25
2023-04-07T00:35:39.000Z,88.86
2023-04-07T00:36:39.000Z,89.17
2023-04-07T00:37:39.000Z,89.47
2023-04-07T00:38:39.000Z,89.03
2023-04-07T00:39:39.000Z,88.54
2023-04-07T00:40:39.000Z,88.57
2023-04-07T00:41:39.000Z,88.51
2023-04-07T00:42:39.000Z,89.04
2023-04-07T00:43:40.000Z,88.51
2023-04-07T00:44:40.000Z,88.93
2023-04-07T00:45:40.000Z,89.15
2023-04-07T00:46:40.000Z,89.51
2023-04-07T00:47:40.000Z,89.00
2023-04-07T00:48:39.000Z,89.77
2023-04-07T00:49:40.000Z,90.02
2023-04-07T00:50:39.000Z,89.97
2023-04-07T00:51:40.000Z,89.98
2023-04-07T00:52:40.000Z,89.43
2023-04-07T00:53:40.000Z,89.46
2023-04-07T00:54:41.000Z,89.38
2023-04-07T00:55:40.000Z,89.47
2023-04-07T00:56:40.000Z,89.02
2023-04-07T00:57:40.000Z,89.63
2023-04-07T00:58:40.000Z,90.37
2023-04-07T00:59:39.000Z,89.56
2023-04-07T01:00:47.000Z,89.55
2023-04-07T01:01:52.000Z,90.10
2023-04-07T01:03:00.000Z,90.57
2023-04-07T01:03:47.000Z,89.63
2023-04-07T01:04:50.000Z,89.86
2023-04-07T01:05:49.000Z,89.58
2023-04-07T01:06:49.000Z,89.24
2023-04-07T01:07:52.000Z,88.88
2023-04-07T01:08:50.000Z,89.20
2023-04-07T01:09:46.000Z,89.38
2023-04-07T01:10:50.000Z,88.80
2023-04-07T01:11:50.000Z,89.30
2023-04-07T01:12:49.000Z,90.12
2023-04-07T01:13:49.000Z,89.70
2023-04-07T01:14:47.000Z,89.94
2023-04-07T01:15:43.000Z,89.59
2023-04-07T01:16:46.000Z,89.20
2023-04-07T01:17:46.000Z,89.60
2023-04-07T01:18:43.000Z,89.69
2023-04-07T01:19:47.000Z,89.42
2023-04-07T01:20:42.000Z,89.24
2023-04-07T01:21:42.000Z,88.98
2023-04-07T01:22:47.000Z,88.61
2023-04-07T01:23:50.000Z,89.27
2023-04-07T01:24:49.000Z,89.80
2023-04-07T01:25:49.000Z,89.58
2023-04-07T01:26:41.000Z,89.63
2023-04-07T01:27:55.000Z,88.60
2023-04-07T01:28:54.000Z,89.30
2023-04-07T01:29:43.000Z,89.73
2023-04-07T01:30:43.000Z,90.09
2023-04-07T01:31:40.000Z,89.39
2023-04-07T01:32:43.000Z,89.12
2023-04-07T01:33:43.000Z,89.14
2023-04-07T01:34:40.000Z,88.79
2023-04-07T01:35:41.000Z,88.85
2023-04-07T01:36:40.000Z,88.62
2023-04-07T01:37:41.000Z,89.33
2023-04-07T01:38:41.000Z,89.06
2023-04-07T01:39:39.000Z,90.01
2023-04-07T01:40:40.000Z,90.36
2023-04-07T01:41:40.000Z,90.65
2023-04-07T01:42:41.000Z,90.69
2023-04-07T01:43:39.000Z,90.57
2023-04-07T01:44:39.000Z,90.20
2023-04-07T01:45:40.000Z,89.63
2023-04-07T01:46:39.000Z,90.00
2023-04-07T01:47:39.000Z,89.70
2023-04-07T01:48:40.000Z,89.13
2023-04-07T01:49:39.000Z,89.19
2023-04-07T01:50:39.000Z,90.49
2023-04-07T01:51:40.000Z,89.57
2023-04-07T01:52:40.000Z,90.00
2023-04-07T01:53:39.000Z,90.13
2023-04-07T01:54:39.000Z,89.67
2023-04-07T01:55:40.000Z,89.36
2023-04-07T01:56:39.000Z,89.05
2023-04-07T01:57:39.000Z,88.67
2023-04-07T01:58:39.000Z,88.46
2023-04-07T01:59:39.000Z,88.48
2023-04-07T02:00:39.000Z,89.12
2023-04-07T02:01:39.000Z,88.07
2023-04-07T02:02:43.000Z,88.54
2023-04-07T02:03:59.000Z,88.90
2023-04-07T02:04:50.000Z,88.41
2023-04-07T02:05:40.000Z,88.69
2023-04-07T02:06:49.000Z,88.60
2023-04-07T02:07:50.000Z,89.16
2023-04-07T02:08:44.000Z,88.47
2023-04-07T02:09:41.000Z,88.66
2023-04-07T02:10:40.000Z,88.43
2023-04-07T02:11:41.000Z,89.00
2023-04-07T02:12:41.000Z,89.52
2023-04-07T02:13:41.000Z,89.26
2023-04-07T02:14:41.000Z,88.15
2023-04-07T02:15:41.000Z,89.11
2023-04-07T02:16:41.000Z,88.99
2023-04-07T02:17:42.000Z,89.45
2023-04-07T02:18:40.000Z,89.99
2023-04-07T02:19:40.000Z,89.42
2023-04-07T02:20:41.000Z,90.22
2023-04-07T02:21:40.000Z,89.96
2023-04-07T02:22:40.000Z,89.43
2023-04-07T02:23:39.000Z,89.59
2023-04-07T02:24:40.000Z,89.75
2023-04-07T02:25:39.000Z,89.29
2023-04-07T02:26:41.000Z,89.23
2023-04-07T02:27:39.000Z,89.10
2023-04-07T02:28:39.000Z,89.58
2023-04-07T02:29:39.000Z,89.99
2023-04-07T02:30:39.000Z,89.88
2023-04-07T02:31:39.000Z,89.44
2023-04-07T02:32:39.000Z,89.63
2023-04-07T02:33:39.000Z,89.67
2023-04-07T02:34:39.000Z,89.18
2023-04-07T02:35:39.000Z,88.92
2023-04-07T02:36:39.000Z,89.63
2023-04-07T02:37:39.000Z,89.76
2023-04-07T02:38:39.000Z,90.26
2023-04-07T02:39:39.000Z,89.91
2023-04-07T02:40:39.000Z,89.79
2023-04-07T02:41:39.000Z,89.26
2023-04-07T02:42:39.000Z,89.01
2023-04-07T02:43:39.000Z,88.95
2023-04-07T02:44:39.000Z,89.15
2023-04-07T02:45:39.000Z,88.85
2023-04-07T02:46:40.000Z,88.73
2023-04-07T02:47:39.000Z,88.59
2023-04-07T02:48:39.000Z,88.76
2023-04-07T02:49:39.000Z,89.60
2023-04-07T02:50:41.000Z,89.93
2023-04-07T02:51:39.000Z,90.02
2023-04-07T02:52:40.000Z,89.75
2023-04-07T02:53:39.000Z,90.27
2023-04-07T02:54:40.000Z,90.40
2023-04-07T02:55:40.000Z,90.21
2023-04-07T02:56:39.000Z,90.75
2023-04-07T02:57:39.000Z,90.51
2023-04-07T02:58:39.000Z,90.02
2023-04-07T02:59:40.000Z,90.20
2023-04-07T03:00:39.000Z,90.21
2023-04-07T03:01:39.000Z,90.50
2023-04-07T03:02:39.000Z,90.69
2023-04-07T03:03:41.000Z,91.13
2023-04-07T03:04:41.000Z,91.21
2023-04-07T03:05:39.000Z,91.38
2023-04-07T03:06:40.000Z,91.23
2023-04-07T03:07:40.000Z,90.50
2023-04-07T03:08:41.000Z,90.91
2023-04-07T03:09:39.000Z,90.86
2023-04-07T03:10:39.000Z,90.00
2023-04-07T03:11:40.000Z,91.70
2023-04-07T03:12:40.000Z,91.52
2023-04-07T03:13:40.000Z,92.03
2023-04-07T03:14:39.000Z,91.76
2023-04-07T03:15:39.000Z,91.48
2023-04-07T03:16:39.000Z,91.50
2023-04-07T03:17:39.000Z,91.74
2023-04-07T03:18:39.000Z,91.75
2023-04-07T03:19:39.000Z,91.54
2023-04-07T03:20:42.000Z,91.25
2023-04-07T03:21:39.000Z,91.04
2023-04-07T03:22:39.000Z,91.50
2023-04-07T03:23:39.000Z,91.70
2023-04-07T03:24:39.000Z,91.28
2023-04-07T03:25:40.000Z,91.90
2023-04-07T03:26:39.000Z,91.72
2023-04-07T03:27:39.000Z,91.30
2023-04-07T03:28:39.000Z,91.94
2023-04-07T03:29:39.000Z,91.43
2023-04-07T03:30:39.000Z,91.22
2023-04-07T03:31:39.000Z,91.25
2023-04-07T03:32:39.000Z,90.82
2023-04-07T03:33:39.000Z,91.04
2023-04-07T03:34:39.000Z,91.15
2023-04-07T03:35:40.000Z,90.84
2023-04-07T03:36:39.000Z,91.53
2023-04-07T03:37:39.000Z,91.72
2023-04-07T03:38:39.000Z,91.26
2023-04-07T03:39:39.000Z,90.63
2023-04-07T03:40:39.000Z,90.46
2023-04-07T03:41:39.000Z,90.17
2023-04-07T03:42:39.000Z,90.19
2023-04-07T03:43:40.000Z,90.29
2023-04-07T03:44:39.000Z,90.41
2023-04-07T03:45:40.000Z,90.25
2023-04-07T03:46:39.000Z,90.03
2023-04-07T03:47:40.000Z,89.86
2023-04-07T03:48:39.000Z,90.19
2023-04-07T03:49:39.000Z,89.77
2023-04-07T03:50:39.000Z,89.68
2023-04-07T03:51:39.000Z,89.57
2023-04-07T03:52:39.000Z,89.13
2023-04-07T03:53:39.000Z,88.70
2023-04-07T03:54:39.000Z,88.81
2023-04-07T03:55:39.000Z,88.73
2023-04-07T03:56:39.000Z,89.29
2023-04-07T03:57:39.000Z,89.58
2023-04-07T03:58:41.000Z,88.93
2023-04-07T03:59:40.000Z,89.49
2023-04-07T04:00:39.000Z,89.35
2023-04-07T04:01:39.000Z,89.52
2023-04-07T04:02:39.000Z,89.79
2023-04-07T04:03:39.000Z,89.88
2023-04-07T04:04:39.000Z,89.63
2023-04-07T04:05:39.000Z,89.47
2023-04-07T04:06:39.000Z,89.53
2023-04-07T04:07:39.000Z,89.79
2023-04-07T04:08:39.000Z,90.18
2023-04-07T04:09:39.000Z,90.69
2023-04-07T04:10:39.000Z,90.03
2023-04-07T04:11:39.000Z,89.88
2023-04-07T04:12:40.000Z,89.55
2023-04-07T04:13:39.000Z,89.62
2023-04-07T04:14:40.000Z,89.15
2023-04-07T04:15:39.000Z,89.12
2023-04-07T04:16:39.000Z,89.85
2023-04-07T04:17:40.000Z,89.90
2023-04-07T04:18:39.000Z,89.72
2023-04-07T04:19:39.000Z,89.39
2023-04-07T04:20:39.000Z,88.75
2023-04-07T04:21:39.000Z,88.60
2023-04-07T04:22:39.000Z,89.38
2023-04-07T04:23:39.000Z,89.18
2023-04-07T04:24:40.000Z,89.58
2023-04-07T04:25:39.000Z,89.58
2023-04-07T04:26:39.000Z,89.11
2023-04-07T04:27:39.000Z,89.62
2023-04-07T04:28:39.000Z,89.29
2023-04-07T04:29:39.000Z,89.87
2023-04-07T04:30:39.000Z,89.06
2023-04-07T04:31:39.000Z,89.25
2023-04-07T04:32:39.000Z,88.29
2023-04-07T04:33:39.000Z,88.05
2023-04-07T04:34:40.000Z,88.90
2023-04-07T04:35:39.000Z,88.98
2023-04-07T04:36:39.000Z,88.72
2023-04-07T04:37:39.000Z,89.17
2023-04-07T04:38:39.000Z,89.19
2023-04-07T04:39:39.000Z,90.23
2023-04-07T04:40:40.000Z,90.97
2023-04-07T04:41:39.000Z,90.23
2023-04-07T04:42:39.000Z,90.54
2023-04-07T04:43:39.000Z,90.82
2023-04-07T04:44:39.000Z,90.51
2023-04-07T04:45:39.000Z,90.51
2023-04-07T04:46:40.000Z,89.96
2023-04-07T04:47:40.000Z,89.46
2023-04-07T04:48:39.000Z,91.55
2023-04-07T04:49:40.000Z,90.44
2023-04-07T04:50:41.000Z,90.35
2023-04-07T04:51:39.000Z,90.37
2023-04-07T04:52:39.000Z,90.03
2023-04-07T04:53:39.000Z,90.80
2023-04-07T04:54:39.000Z,90.62
2023-04-07T04:55:41.000Z,90.61
2023-04-07T04:56:39.000Z,90.66
2023-04-07T04:57:39.000Z,90.16
2023-04-07T04:58:41.000Z,89.73
2023-04-07T04:59:39.000Z,89.72
2023-04-07T05:00:40.000Z,89.07
2023-04-07T05:01:39.000Z,89.81
2023-04-07T05:02:39.000Z,91.35
2023-04-07T05:03:39.000Z,91.10
2023-04-07T05:04:40.000Z,90.24
2023-04-07T05:05:39.000Z,90.56
2023-04-07T05:06:39.000Z,90.70
2023-04-07T05:07:39.000Z,90.31
2023-04-07T05:08:39.000Z,89.59
2023-04-07T05:09:39.000Z,89.74
2023-04-07T05:10:40.000Z,90.30
2023-04-07T05:11:40.000Z,89.67
2023-04-07T05:12:39.000Z,89.84
2023-04-07T05:13:39.000Z,89.20
2023-04-07T05:14:40.000Z,88.61
2023-04-07T05:15:40.000Z,88.57
2023-04-07T05:16:39.000Z,89.56
2023-04-07T05:17:39.000Z,89.92
2023-04-07T05:18:39.000Z,90.15
2023-04-07T05:19:39.000Z,90.09
2023-04-07T05:20:39.000Z,90.38
2023-04-07T05:21:39.000Z,90.78
2023-04-07T05:22:39.000Z,89.87
2023-04-07T05:23:39.000Z,90.13
2023-04-07T05:24:39.000Z,90.41
2023-04-07T05:25:39.000Z,90.53
2023-04-07T05:26:39.000Z,90.17
2023-04-07T05:27:39.000Z,90.89
2023-04-07T05:28:39.000Z,90.82
2023-04-07T05:29:39.000Z,91.00
2023-04-07T05:30:39.000Z,90.83
2023-04-07T05:31:39.000Z,90.70
2023-04-07T05:32:39.000Z,90.86
2023-04-07T05:33:39.000Z,91.04
2023-04-07T05:34:39.000Z,90.74
2023-04-07T05:35:39.000Z,90.29
2023-04-07T05:36:39.000Z,91.18
2023-04-07T05:37:39.000Z,91.02
2023-04-07T05:38:39.000Z,91.82
2023-04-07T05:39:39.000Z,90.36
2023-04-07T05:40:39.000Z,90.93
2023-04-07T05:41:39.000Z,91.30
2023-04-07T05:42:40.000Z,91.16
2023-04-07T05:43:39.000Z,91.29
2023-04-07T05:44:39.000Z,90.94
2023-04-07T05:45:39.000Z,90.89
2023-04-07T05:46:39.000Z,90.90
2023-04-07T05:47:39.000Z,91.43
2023-04-07T05:48:39.000Z,91.96
2023-04-07T05:49:44.000Z,91.85
2023-04-07T05:50:39.000Z,91.62
2023-04-07T05:51:38.000Z,91.96
2023-04-07T05:52:39.000Z,91.20
2023-04-07T05:53:38.000Z,91.52
2023-04-07T05:54:39.000Z,91.63
2023-04-07T05:55:41.000Z,91.55
2023-04-07T05:56:39.000Z,91.13
2023-04-07T05:57:40.000Z,91.23
2023-04-07T05:58:38.000Z,91.41
2023-04-07T05:59:39.000Z,91.93
2023-04-07T06:00:39.000Z,91.33
2023-04-07T06:01:40.000Z,91.69
2023-04-07T06:02:39.000Z,92.20
2023-04-07T06:03:39.000Z,91.76
2023-04-07T06:04:39.000Z,92.32
2023-04-07T06:05:44.000Z,92.26
2023-04-07T06:06:39.000Z,93.06
2023-04-07T06:07:38.000Z,92.70
2023-04-07T06:08:38.000Z,92.24
2023-04-07T06:09:40.000Z,92.42
2023-04-07T06:10:39.000Z,92.74
2023-04-07T06:11:39.000Z,92.46
2023-04-07T06:12:38.000Z,92.72
2023-04-07T06:13:39.000Z,93.00
2023-04-07T06:14:38.000Z,93.25
2023-04-07T06:15:39.000Z,92.98
2023-04-07T06:16:39.000Z,92.79
2023-04-07T06:17:39.000Z,92.90
2023-04-07T06:18:39.000Z,92.96
2023-04-07T06:19:40.000Z,92.59
2023-04-07T06:20:40.000Z,93.44
2023-04-07T06:21:39.000Z,93.11
2023-04-07T06:22:39.000Z,93.11
2023-04-07T06:23:39.000Z,92.87
2023-04-07T06:24:39.000Z,93.00
2023-04-07T06:25:39.000Z,92.64
2023-04-07T06:26:40.000Z,92.71
2023-04-07T06:27:39.000Z,92.58
2023-04-07T06:28:39.000Z,92.46
2023-04-07T06:29:40.000Z,92.54
2023-04-07T06:30:41.000Z,92.37
2023-04-07T06:31:39.000Z,91.93
2023-04-07T06:32:39.000Z,92.23
2023-04-07T06:33:40.000Z,91.91
2023-04-07T06:34:40.000Z,91.86
2023-04-07T06:35:40.000Z,91.24
2023-04-07T06:36:39.000Z,92.07
2023-04-07T06:37:40.000Z,91.33
2023-04-07T06:38:39.000Z,92.04
2023-04-07T06:39:40.000Z,91.33
2023-04-07T06:40:39.000Z,91.26
2023-04-07T06:41:42.000Z,91.16
2023-04-07T06:42:39.000Z,90.76
2023-04-07T06:43:40.000Z,90.73
2023-04-07T06:44:39.000Z,90.62
2023-04-07T06:45:39.000Z,90.19
2023-04-07T06:46:41.000Z,90.12
2023-04-07T06:47:39.000Z,90.09
2023-04-07T06:48:39.000Z,90.05
2023-04-07T06:49:40.000Z,89.92
2023-04-07T06:50:39.000Z,90.14
2023-04-07T06:51:39.000Z,90.33
2023-04-07T06:52:39.000Z,90.54
2023-04-07T06:53:40.000Z,89.90
2023-04-07T06:54:39.000Z,90.34
2023-04-07T06:55:39.000Z,90.73
2023-04-07T06:56:40.000Z,90.69
2023-04-07T06:57:39.000Z,91.21
2023-04-07T06:58:39.000Z,90.50
2023-04-07T06:59:39.000Z,90.68
2023-04-07T07:00:39.000Z,90.00
2023-04-07T07:01:39.000Z,89.94
2023-04-07T07:02:39.000Z,90.83
2023-04-07T07:03:39.000Z,90.41
2023-04-07T07:04:39.000Z,90.54
2023-04-07T07:05:39.000Z,90.06
2023-04-07T07:06:39.000Z,90.03
2023-04-07T07:07:39.000Z,90.50
2023-04-07T07:08:39.000Z,89.67
2023-04-07T07:09:39.000Z,89.02
2023-04-07T07:10:39.000Z,89.20
2023-04-07T07:11:39.000Z,88.53
2023-04-07T07:12:39.000Z,88.48
2023-04-07T07:13:39.000Z,88.15
2023-04-07T07:14:39.000Z,87.68
2023-04-07T07:15:39.000Z,87.66
2023-04-07T07:16:39.000Z,87.08
2023-04-07T07:17:39.000Z,86.86
2023-04-07T07:18:38.000Z,86.64
2023-04-07T07:19:38.000Z,88.45
2023-04-07T07:20:38.000Z,87.87
2023-04-07T07:21:39.000Z,86.88
2023-04-07T07:22:39.000Z,86.48
2023-04-07T07:23:38.000Z,86.12
2023-04-07T07:24:38.000Z,85.59
2023-04-07T07:25:38.000Z,85.49
2023-04-07T07:26:39.000Z,85.42
2023-04-07T07:27:39.000Z,85.52
2023-04-07T07:28:38.000Z,84.86
2023-04-07T07:29:38.000Z,84.39
2023-04-07T07:30:41.000Z,84.49
2023-04-07T07:31:38.000Z,84.10
2023-04-07T07:32:38.000Z,84.25
2023-04-07T07:33:40.000Z,84.18
2023-04-07T07:34:38.000Z,84.43
2023-04-07T07:35:39.000Z,84.97
2023-04-07T07:36:38.000Z,84.66
2023-04-07T07:37:38.000Z,85.14
2023-04-07T07:38:39.000Z,85.26
2023-04-07T07:39:38.000Z,85.10
2023-04-07T07:40:38.000Z,85.34
2023-04-07T07:41:40.000Z,85.39
2023-04-07T07:42:39.000Z,85.31
2023-04-07T07:43:39.000Z,85.38
2023-04-07T07:44:38.000Z,85.13
2023-04-07T07:45:39.000Z,84.54
2023-04-07T07:46:38.000Z,83.34
2023-04-07T07:47:39.000Z,81.42
2023-04-07T07:48:39.000Z,80.96
2023-04-07T07:49:40.000Z,80.95
2023-04-07T07:50:39.000Z,80.85
2023-04-07T07:51:39.000Z,80.35
2023-04-07T07:52:39.000Z,79.57
2023-04-07T07:53:39.000Z,79.82
2023-04-07T07:54:39.000Z,79.35
2023-04-07T07:55:39.000Z,79.24
2023-04-07T07:56:42.000Z,79.39
2023-04-07T07:57:39.000Z,79.46
2023-04-07T07:58:39.000Z,79.43
2023-04-07T07:59:40.000Z,79.96
2023-04-07T08:00:39.000Z,79.22
2023-04-07T08:01:39.000Z,79.03
2023-04-07T08:02:39.000Z,79.13
2023-04-07T08:03:39.000Z,79.12
2023-04-07T08:04:39.000Z,79.12
2023-04-07T08:05:39.000Z,78.37
2023-04-07T08:06:39.000Z,78.59
2023-04-07T08:07:39.000Z,78.70
2023-04-07T08:08:39.000Z,78.39
2023-04-07T08:09:39.000Z,78.43
2023-04-07T08:10:39.000Z,77.99
2023-04-07T08:11:39.000Z,77.94
2023-04-07T08:12:39.000Z,76.93
2023-04-07T08:13:43.000Z,75.78
2023-04-07T08:14:39.000Z,75.35
2023-04-07T08:15:39.000Z,77.00
2023-04-07T08:16:39.000Z,76.13
2023-04-07T08:17:39.000Z,76.11
2023-04-07T08:18:39.000Z,76.01
2023-04-07T08:19:38.000Z,76.41
2023-04-07T08:20:39.000Z,76.79
2023-04-07T08:21:39.000Z,76.71
2023-04-07T08:22:39.000Z,76.56
2023-04-07T08:23:39.000Z,76.78
2023-04-07T08:24:39.000Z,76.50
2023-04-07T08:25:39.000Z,76.09
2023-04-07T08:26:38.000Z,75.88
2023-04-07T08:27:39.000Z,75.52
2023-04-07T08:28:39.000Z,75.17
2023-04-07T08:29:39.000Z,75.52
2023-04-07T08:30:38.000Z,74.93
2023-04-07T08:31:39.000Z,74.61
2023-04-07T08:32:40.000Z,73.84
2023-04-07T08:33:38.000Z,73.67
2023-04-07T08:34:39.000Z,73.98
2023-04-07T08:35:39.000Z,75.26
2023-04-07T08:36:38.000Z,75.28
2023-04-07T08:37:39.000Z,74.67
2023-04-07T08:38:38.000Z,74.86
2023-04-07T08:39:39.000Z,75.60
2023-04-07T08:40:39.000Z,75.64
2023-04-07T08:41:40.000Z,76.28
2023-04-07T08:42:41.000Z,75.23
2023-04-07T08:43:42.000Z,74.77
2023-04-07T08:44:42.000Z,74.61
2023-04-07T08:45:40.000Z,74.73
2023-04-07T08:46:39.000Z,74.63
2023-04-07T08:47:39.000Z,74.86
2023-04-07T08:48:44.000Z,75.19
2023-04-07T08:49:43.000Z,74.82
2023-04-07T08:50:42.000Z,74.38
2023-04-07T08:51:45.000Z,74.74
2023-04-07T08:52:46.000Z,73.91
2023-04-07T08:53:44.000Z,73.98
2023-04-07T08:54:39.000Z,73.89
2023-04-07T08:55:39.000Z,73.84
2023-04-07T08:56:42.000Z,74.10
2023-04-07T08:57:40.000Z,74.09
2023-04-07T08:58:39.000Z,74.44
2023-04-07T08:59:41.000Z,75.11
2023-04-07T09:00:42.000Z,75.19
2023-04-07T09:01:39.000Z,75.12
2023-04-07T09:02:41.000Z,75.51
2023-04-07T09:03:39.000Z,75.63
2023-04-07T09:04:39.000Z,75.99
2023-04-07T09:05:39.000Z,74.72
2023-04-07T09:06:38.000Z,74.03
2023-04-07T09:07:39.000Z,73.77
2023-04-07T09:08:39.000Z,72.72
2023-04-07T09:09:39.000Z,71.05
2023-04-07T09:10:39.000Z,71.64
2023-04-07T09:11:39.000Z,71.62
2023-04-07T09:12:39.000Z,71.51
2023-04-07T09:13:39.000Z,71.91
2023-04-07T09:14:39.000Z,71.89
2023-04-07T09:15:40.000Z,71.00
2023-04-07T09:16:39.000Z,70.63
2023-04-07T09:17:39.000Z,70.65
2023-04-07T09:18:39.000Z,68.63
2023-04-07T09:19:39.000Z,68.93
2023-04-07T09:20:51.000Z,69.80
2023-04-07T09:21:48.000Z,68.96
2023-04-07T09:22:41.000Z,68.70
2023-04-07T09:23:40.000Z,68.92
2023-04-07T09:24:39.000Z,69.93
2023-04-07T09:25:38.000Z,69.54
2023-04-07T09:26:39.000Z,69.98
2023-04-07T09:27:39.000Z,70.35
2023-04-07T09:28:43.000Z,70.64
2023-04-07T09:29:40.000Z,70.21
2023-04-07T09:30:51.000Z,70.50
2023-04-07T09:31:47.000Z,70.41
2023-04-07T09:32:39.000Z,70.88
2023-04-07T09:33:38.000Z,69.76
2023-04-07T09:34:39.000Z,70.76
2023-04-07T09:35:49.000Z,70.51
2023-04-07T09:36:39.000Z,69.19
2023-04-07T09:37:38.000Z,69.46
2023-04-07T09:38:42.000Z,70.24
2023-04-07T09:39:47.000Z,70.81
2023-04-07T09:40:38.000Z,70.53
2023-04-07T09:41:38.000Z,69.50
2023-04-07T09:42:44.000Z,69.95
2023-04-07T09:43:41.000Z,69.94
2023-04-07T09:44:39.000Z,70.61
2023-04-07T09:45:38.000Z,70.99
2023-04-07T09:46:50.000Z,69.19
2023-04-07T09:47:38.000Z,69.58
2023-04-07T09:48:39.000Z,67.71
2023-04-07T09:49:48.000Z,67.69
2023-04-07T09:50:39.000Z,67.57
2023-04-07T09:51:54.000Z,68.16
2023-04-07T09:52:47.000Z,68.85
2023-04-07T09:53:49.000Z,68.88
2023-04-07T09:54:39.000Z,68.98
2023-04-07T09:55:40.000Z,69.20
2023-04-07T09:56:38.000Z,69.26
2023-04-07T09:57:40.000Z,69.22
2023-04-07T09:58:44.000Z,69.35
2023-04-07T09:59:40.000Z,69.00
2023-04-07T10:00:39.000Z,69.15
2023-04-07T10:01:39.000Z,69.87
2023-04-07T10:02:40.000Z,68.28
2023-04-07T10:03:38.000Z,67.92
2023-04-07T10:04:39.000Z,68.55
2023-04-07T10:05:40.000Z,69.39
2023-04-07T10:06:40.000Z,69.20
2023-04-07T10:07:39.000Z,70.28
2023-04-07T10:08:41.000Z,69.78
2023-04-07T10:09:39.000Z,69.00
2023-04-07T10:10:40.000Z,68.16
2023-04-07T10:11:40.000Z,68.87
2023-04-07T10:12:40.000Z,69.09
2023-04-07T10:13:40.000Z,68.25
2023-04-07T10:14:39.000Z,68.35
2023-04-07T10:15:39.000Z,68.03
2023-04-07T10:16:40.000Z,68.02
2023-04-07T10:17:44.000Z,67.24
2023-04-07T10:18:39.000Z,67.63
2023-04-07T10:19:39.000Z,67.17
2023-04-07T10:20:40.000Z,68.01
2023-04-07T10:21:48.000Z,67.26
2023-04-07T10:22:41.000Z,67.00
2023-04-07T10:23:49.000Z,67.10
2023-04-07T10:24:55.000Z,66.59
2023-04-07T10:25:39.000Z,66.46
2023-04-07T10:26:40.000Z,67.19
2023-04-07T10:27:50.000Z,67.40
2023-04-07T10:28:44.000Z,66.61
2023-04-07T10:29:41.000Z,66.47
2023-04-07T10:30:39.000Z,65.94
2023-04-07T10:31:39.000Z,66.49
2023-04-07T10:32:44.000Z,66.08
2023-04-07T10:33:45.000Z,65.81
2023-04-07T10:34:50.000Z,66.74
2023-04-07T10:35:49.000Z,67.10
2023-04-07T10:37:03.000Z,67.01
2023-04-07T10:37:39.000Z,67.79
2023-04-07T10:38:41.000Z,68.01
2023-04-07T10:39:39.000Z,68.27
2023-04-07T10:40:41.000Z,68.47
2023-04-07T10:41:40.000Z,67.89
2023-04-07T10:42:43.000Z,67.97
2023-04-07T10:43:40.000Z,68.80
2023-04-07T10:44:54.000Z,68.85
2023-04-07T10:45:53.000Z,69.06
2023-04-07T10:46:59.000Z,68.82
2023-04-07T10:47:49.000Z,68.78
2023-04-07T10:48:39.000Z,70.15
2023-04-07T10:50:01.000Z,69.95
2023-04-07T10:50:39.000Z,71.45
2023-04-07T10:51:39.000Z,73.76
2023-04-07T10:52:39.000Z,77.23
2023-04-07T10:54:09.000Z,76.68
2023-04-07T10:54:39.000Z,76.64
2023-04-07T10:55:43.000Z,79.22
2023-04-07T10:56:49.000Z,79.31
2023-04-07T10:57:58.000Z,81.50
2023-04-07T10:58:39.000Z,81.60
2023-04-07T10:59:59.000Z,80.71
2023-04-07T11:00:39.000Z,79.10
2023-04-07T11:01:38.000Z,80.24
2023-04-07T11:02:39.000Z,77.82
2023-04-07T11:03:50.000Z,79.22
2023-04-07T11:04:43.000Z,81.96
2023-04-07T11:05:40.000Z,81.77
2023-04-07T11:06:46.000Z,82.86
2023-04-07T11:07:43.000Z,84.47
2023-04-07T11:08:43.000Z,84.21
2023-04-07T11:09:39.000Z,84.32
2023-04-07T11:10:45.000Z,86.14
2023-04-07T11:11:40.000Z,86.47
2023-04-07T11:12:38.000Z,85.44
2023-04-07T11:13:46.000Z,86.60
2023-04-07T11:14:40.000Z,86.54
2023-04-07T11:15:38.000Z,86.75
2023-04-07T11:16:41.000Z,86.37
2023-04-07T11:17:38.000Z,86.92
2023-04-07T11:18:39.000Z,81.60
2023-04-07T11:19:49.000Z,81.96
2023-04-07T11:20:44.000Z,78.28
2023-04-07T11:21:38.000Z,75.94
2023-04-07T11:22:39.000Z,76.73
2023-04-07T11:23:44.000Z,77.18
2023-04-07T11:24:38.000Z,73.27
2023-04-07T11:25:41.000Z,73.58
2023-04-07T11:26:39.000Z,73.25
2023-04-07T11:27:39.000Z,74.92
2023-04-07T11:28:47.000Z,70.19
2023-04-07T11:29:39.000Z,70.60
2023-04-07T11:30:45.000Z,72.57
2023-04-07T11:31:38.000Z,68.03
2023-04-07T11:32:38.000Z,65.52
2023-04-07T11:33:40.000Z,65.17
2023-04-07T11:34:38.000Z,66.10
2023-04-07T11:35:49.000Z,65.43
2023-04-07T11:36:39.000Z,64.92
2023-04-07T11:37:39.000Z,64.49
2023-04-07T11:38:38.000Z,63.89
2023-04-07T11:39:39.000Z,64.69
2023-04-07T11:40:38.000Z,61.88
2023-04-07T11:41:45.000Z,64.52
2023-04-07T11:42:38.000Z,64.20
2023-04-07T11:43:40.000Z,64.63
2023-04-07T11:44:44.000Z,65.94
2023-04-07T11:45:39.000Z,68.30
2023-04-07T11:46:48.000Z,69.23
2023-04-07T11:47:38.000Z,71.35
2023-04-07T11:48:41.000Z,72.61
2023-04-07T11:49:44.000Z,74.05
2023-04-07T11:50:40.000Z,72.43
2023-04-07T11:51:41.000Z,73.16
2023-04-07T11:52:43.000Z,72.09
2023-04-07T11:53:40.000Z,71.85
2023-04-07T11:54:43.000Z,71.52
2023-04-07T11:55:39.000Z,71.62
2023-04-07T11:56:44.000Z,71.46
2023-04-07T11:57:39.000Z,71.69
2023-04-07T11:58:45.000Z,70.28
2023-04-07T11:59:40.000Z,70.91
2023-04-07T12:00:49.000Z,71.04
2023-04-07T12:01:40.000Z,71.13
2023-04-07T12:02:39.000Z,71.45
2023-04-07T12:03:54.000Z,70.45
2023-04-07T12:04:54.000Z,71.16
2023-04-07T12:05:43.000Z,71.22
2023-04-07T12:06:40.000Z,70.74
2023-04-07T12:07:52.000Z,69.59
2023-04-07T12:08:41.000Z,69.42
2023-04-07T12:09:39.000Z,69.44
2023-04-07T12:10:40.000Z,68.72
2023-04-07T12:11:48.000Z,67.72
2023-04-07T12:12:44.000Z,68.33
2023-04-07T12:13:40.000Z,67.84
2023-04-07T12:14:39.000Z,68.27
2023-04-07T12:15:39.000Z,69.11
2023-04-07T12:16:39.000Z,68.54
2023-04-07T12:17:44.000Z,68.34
2023-04-07T12:18:39.000Z,69.49
2023-04-07T12:19:39.000Z,69.85
2023-04-07T12:20:39.000Z,70.17
2023-04-07T12:21:39.000Z,70.47
2023-04-07T12:22:39.000Z,70.79
2023-04-07T12:23:39.000Z,70.50
2023-04-07T12:24:39.000Z,70.41
2023-04-07T12:25:39.000Z,71.02
2023-04-07T12:26:39.000Z,70.62
2023-04-07T12:27:39.000Z,70.66
2023-04-07T12:28:39.000Z,71.58
2023-04-07T12:29:39.000Z,71.40
2023-04-07T12:30:39.000Z,70.58
2023-04-07T12:31:39.000Z,71.07
2023-04-07T12:32:39.000Z,71.09
2023-04-07T12:33:39.000Z,70.54
2023-04-07T12:34:39.000Z,70.94
2023-04-07T12:35:39.000Z,72.12
2023-04-07T12:36:39.000Z,73.02
2023-04-07T12:37:39.000Z,74.55
2023-04-07T12:38:39.000Z,74.81
2023-04-07T12:39:39.000Z,75.89
2023-04-07T12:40:39.000Z,75.85
2023-04-07T12:41:39.000Z,77.15
2023-04-07T12:42:39.000Z,76.61
2023-04-07T12:43:39.000Z,76.66
2023-04-07T12:44:39.000Z,77.39
2023-04-07T12:45:39.000Z,77.47
2023-04-07T12:46:39.000Z,76.33
2023-04-07T12:47:39.000Z,76.37
2023-04-07T12:48:39.000Z,76.51
2023-04-07T12:49:39.000Z,77.24
2023-04-07T12:50:39.000Z,77.28
2023-04-07T12:51:39.000Z,76.90
2023-04-07T12:52:40.000Z,77.00